Newportville, Pennsylvania
Current Conditions -  °F | °C
As of 9:54 AM on Tuesday 21 Oct 2014 (Local Time) from KPNE Reporting Station
Clear Clear  
Wind Chill: 57°   Ceiling: Unl
Heat Index: 57°   Visibility: 10mi
Dew Point: 47°   Wind: 0mph
Humidity: 69%   Direction: NA
Pressure: 29.9"   Gusts: NA
Location:  40.1547°N, 74.8824°W
Report Text: KPNE 211354Z 00000KT 10SM CLR 14/08 A2990 RMK AO2 SLP125 T01390083
Loading
Personal Weather Stations






























Interactive Weather Map
Tropical Storm Tracking
New forecast layout! Learn more

10-Day Weather Forecast

Advertisements
Track Severe Weather on mobile